KDYB

Details ICAO KDYB
Name SUMMERVILLE
Region United States
Timezone America/New_York (UTC-5.0)
Plans Departing 9
Arriving 1
Stats Elevation 56 ft / 17 m (AMSL)
Location 33.063435° -80.279324°
Runways 1
Magnetic Variation 7.766° W
Sunrise 2017-12-17 12:19:33 UTC / 2017-12-17 07:19:33 Local
Sunset 2017-12-17 22:17:52 UTC / 2017-12-17 17:17:52 Local
Advertisement - Login to hide

Runways

ID Width Length Bearing (true) Bearing (mag) Surface Threshold Offset Overrun Length
06 75 ft / 23 m 3,701 ft / 1,128 m 48.93° 56.70° Asphalt 0 ft / 0 m 0 ft / 0 m
24 75 ft / 23 m 3,701 ft / 1,128 m 228.93° 236.70° Asphalt 0 ft / 0 m 0 ft / 0 m

Map

Weather


0- 5 10 15 20 25 30 35+ Temperature / ° C

Clouds and Precipitation
Forecast for 2017-12-17 12:00 UTC. Updated an hour ago

Ground ~20,000 ft ~40,000 ft Winds

METAR

KDYB 170835Z AUTO 00000KT 10SM CLR 00/M01 A3033 RMK AO1

TAF

Not found

Frequencies

Recorded 119.57 MHz ASOS
Approach 120.70 MHz CHARLESTON APP/DEP
Unicom 123.00 MHz CTAF/UNICOM
Warning: Do not use this data for real-world aviation or navigation. No guarantee of current accuracy is given.